Time;durP1;ratioP1;P1;durP2;ratioP2;P2;SDS_P1;SDS_P2;PMS_P1;PMS_P2;Temp;Humidity;BMP_temperature;BMP_pressure;BME280_temperature;BME280_humidity;BME280_pressure;Samples;Min_cycle;Max_cycle;Signal;HPM_P1;HPM_P2
2023/11/16 00:00:32;;;;;;;0.70;0.70;;;;;;;7.14;88.68;98824.00;4998591;28;20030;-83
2023/11/16 00:02:58;;;;;;;0.63;0.63;;;;;;;7.09;89.24;98814.88;4999047;28;20044;-82
2023/11/16 00:05:24;;;;;;;0.60;0.60;;;;;;;7.09;89.83;98821.13;4997996;28;20038;-82
2023/11/16 00:07:50;;;;;;;0.70;0.70;;;;;;;7.08;89.47;98821.94;4996706;28;20030;-81
2023/11/16 00:10:19;;;;;;;0.60;0.60;;;;;;;7.09;89.51;98823.78;4983727;28;20046;-83
2023/11/16 00:12:45;;;;;;;0.70;0.70;;;;;;;7.09;89.67;98828.16;4980882;28;20038;-82
2023/11/16 00:15:11;;;;;;;0.63;0.63;;;;;;;7.07;89.47;98825.44;4998824;28;20088;-82
2023/11/16 00:17:37;;;;;;;0.70;0.70;;;;;;;7.00;89.12;98823.38;4997536;28;20053;-81
2023/11/16 00:20:07;;;;;;;0.70;0.70;;;;;;;6.96;89.55;98824.06;4993384;28;20046;-81
2023/11/16 00:22:33;;;;;;;0.60;0.60;;;;;;;6.97;90.43;98819.66;4995829;28;20591;-82
2023/11/16 00:24:59;;;;;;;0.70;0.70;;;;;;;6.96;90.22;98820.53;5002256;28;20039;-81
2023/11/16 00:27:26;;;;;;;0.60;0.60;;;;;;;6.93;89.74;98818.63;4997374;28;20030;-81
2023/11/16 00:29:52;;;;;;;0.70;0.70;;;;;;;6.88;90.26;98807.81;4996927;28;20511;-82
2023/11/16 00:32:18;;;;;;;0.70;0.70;;;;;;;6.93;90.68;98816.88;4995412;28;20511;-82
2023/11/16 00:34:44;;;;;;;0.60;0.60;;;;;;;6.97;90.71;98809.06;5009803;28;20034;-82
2023/11/16 00:37:10;;;;;;;0.60;0.60;;;;;;;7.14;90.77;98818.69;4994565;28;20027;-82
2023/11/16 00:39:38;;;;;;;0.70;0.70;;;;;;;7.09;90.86;98815.81;4992375;28;20125;-82
2023/11/16 00:42:05;;;;;;;0.60;0.60;;;;;;;7.09;90.04;98817.53;4996744;28;20037;-81
2023/11/16 00:44:31;;;;;;;0.70;0.70;;;;;;;6.93;89.99;98813.31;4998226;28;20396;-83
2023/11/16 00:46:57;;;;;;;0.70;0.70;;;;;;;6.79;90.83;98818.00;4999330;28;20539;-83
2023/11/16 00:49:23;;;;;;;0.70;0.70;;;;;;;6.83;90.65;98808.44;4995272;28;20030;-83
2023/11/16 00:51:50;;;;;;;0.70;0.70;;;;;;;6.88;90.35;98804.25;4995782;28;20037;-83
2023/11/16 00:54:16;;;;;;;0.70;0.70;;;;;;;6.76;90.30;98809.91;4978833;28;20117;-82
2023/11/16 00:56:41;;;;;;;0.70;0.70;;;;;;;6.54;91.06;98804.47;4995156;28;20136;-81
2023/11/16 00:59:09;;;;;;;0.80;0.80;;;;;;;6.43;91.62;98809.28;4997162;28;20064;-82
2023/11/16 01:01:37;;;;;;;0.70;0.70;;;;;;;6.58;91.88;98806.44;4994146;28;20038;-82
2023/11/16 01:04:04;;;;;;;0.70;0.70;;;;;;;6.55;91.77;98816.88;4978042;28;20038;-81
2023/11/16 01:06:32;;;;;;;0.70;0.70;;;;;;;6.59;91.54;98805.59;5001830;28;20034;-81
2023/11/16 01:08:59;;;;;;;0.70;0.70;;;;;;;6.61;91.80;98799.53;4996149;28;20110;-81
2023/11/16 01:11:27;;;;;;;0.70;0.70;;;;;;;6.65;91.45;98796.16;4995859;28;20030;-83
2023/11/16 01:13:57;;;;;;;0.70;0.70;;;;;;;6.82;90.25;98790.72;4994340;28;20042;-83
2023/11/16 01:16:30;;;;;;;0.70;0.70;;;;;;;6.60;90.13;98803.00;4995473;28;20034;-82
2023/11/16 01:19:00;;;;;;;0.70;0.70;;;;;;;6.60;89.16;98802.09;4994055;28;20046;-81
2023/11/16 01:21:26;;;;;;;0.65;0.65;;;;;;;6.81;88.62;98797.78;4999074;28;20535;-81
2023/11/16 01:23:59;;;;;;;0.70;0.70;;;;;;;6.68;88.81;98795.41;5001458;28;20030;-81
2023/11/16 01:26:26;;;;;;;0.70;0.70;;;;;;;6.78;88.70;98791.41;4996412;28;20030;-81
2023/11/16 01:28:58;;;;;;;0.75;0.75;;;;;;;6.98;87.50;98792.31;4997650;28;20506;-83
2023/11/16 01:31:24;;;;;;;0.80;0.80;;;;;;;6.91;87.51;98786.72;4983227;28;20042;-81
2023/11/16 01:33:50;;;;;;;0.80;0.80;;;;;;;6.97;87.09;98785.19;4978141;28;20042;-82
2023/11/16 01:36:16;;;;;;;0.70;0.70;;;;;;;7.03;86.82;98785.44;4994049;28;20038;-82
2023/11/16 01:38:42;;;;;;;0.80;0.80;;;;;;;7.16;86.56;98772.78;4997601;28;20053;-82
2023/11/16 01:41:09;;;;;;;0.60;0.60;;;;;;;7.09;86.39;98780.41;4995789;28;20037;-82
2023/11/16 01:43:36;;;;;;;0.80;0.80;;;;;;;7.14;86.34;98787.75;4979846;28;20029;-84
2023/11/16 01:46:06;;;;;;;0.80;0.80;;;;;;;7.23;86.71;98796.91;4992635;28;20033;-81
2023/11/16 01:48:36;;;;;;;0.73;0.73;;;;;;;7.19;87.59;98793.25;4995521;28;20025;-81
2023/11/16 01:51:05;;;;;;;0.77;0.77;;;;;;;7.11;87.91;98797.31;4995272;28;20026;-81
2023/11/16 01:53:37;;;;;;;0.70;0.70;;;;;;;7.15;88.33;98801.91;4996047;28;20026;-84
2023/11/16 01:56:04;;;;;;;0.80;0.80;;;;;;;7.03;88.93;98804.03;4993649;28;20038;-81
2023/11/16 01:58:32;;;;;;;0.60;0.60;;;;;;;6.92;89.56;98801.81;4998249;28;20514;-81
2023/11/16 02:00:57;;;;;;;0.70;0.70;;;;;;;6.88;89.80;98798.94;4981478;28;20125;-80
2023/11/16 02:03:23;;;;;;;0.70;0.70;;;;;;;6.88;89.73;98797.19;5000044;22;20182;-77
2023/11/16 02:05:48;;;;;;;0.70;0.70;;;;;;;7.12;89.68;98813.28;4978447;28;20049;-77
2023/11/16 02:08:14;;;;;;;0.70;0.70;;;;;;;7.00;89.98;98822.47;4989742;28;20061;-78
2023/11/16 02:10:41;;;;;;;0.70;0.70;;;;;;;7.09;89.44;98815.81;4988252;28;20099;-78
2023/11/16 02:13:26;;;;;;;0.80;0.80;;;;;;;7.02;88.21;98810.16;4971825;28;20038;-78
2023/11/16 02:15:58;;;;;;;0.70;0.70;;;;;;;6.94;87.91;98821.31;4988570;28;20499;-78
2023/11/16 02:18:25;;;;;;;0.60;0.60;;;;;;;6.90;88.04;98818.50;4989897;28;20045;-77
2023/11/16 02:20:53;;;;;;;0.80;0.80;;;;;;;6.84;88.35;98811.16;4975476;28;20027;-77
2023/11/16 02:23:18;;;;;;;0.70;0.70;;;;;;;6.80;88.14;98810.94;4990944;28;20057;-78
2023/11/16 02:25:51;;;;;;;0.80;0.80;;;;;;;6.76;88.38;98812.56;4977562;28;20073;-77
2023/11/16 02:28:21;;;;;;;0.70;0.70;;;;;;;6.72;89.10;98815.91;4973903;28;20037;-77
2023/11/16 02:30:47;;;;;;;0.80;0.80;;;;;;;6.84;88.47;98812.91;4972979;28;20654;-78
2023/11/16 02:33:13;;;;;;;0.73;0.73;;;;;;;6.80;88.69;98806.53;4991619;28;20061;-79
2023/11/16 02:35:39;;;;;;;0.70;0.70;;;;;;;6.77;89.02;98803.78;4974927;28;20101;-78
2023/11/16 02:38:06;;;;;;;0.70;0.70;;;;;;;6.75;88.63;98808.09;4992261;28;20481;-78
2023/11/16 02:40:32;;;;;;;0.75;0.75;;;;;;;6.67;89.05;98806.84;4975716;28;20046;-78
2023/11/16 02:42:57;;;;;;;0.70;0.70;;;;;;;6.58;89.42;98799.38;4990612;28;20045;-78
2023/11/16 02:45:23;;;;;;;0.70;0.70;;;;;;;6.58;90.20;98794.06;4976388;28;20050;-78
2023/11/16 02:47:53;;;;;;;0.70;0.70;;;;;;;6.61;90.13;98796.88;4979528;28;20037;-78
2023/11/16 02:50:22;;;;;;;0.70;0.70;;;;;;;6.65;90.61;98795.25;4988457;28;20315;-77
2023/11/16 02:52:51;;;;;;;0.70;0.70;;;;;;;6.65;90.62;98803.22;4973234;28;20045;-77
2023/11/16 02:55:17;;;;;;;0.70;0.70;;;;;;;6.59;90.98;98800.28;4972233;28;20046;-77
2023/11/16 02:57:43;;;;;;;0.70;0.70;;;;;;;6.61;91.28;98794.22;4970583;28;20449;-78
2023/11/16 03:00:12;;;;;;;0.70;0.70;;;;;;;6.67;91.21;98798.91;4976307;28;20036;-78
2023/11/16 03:02:40;;;;;;;0.60;0.60;;;;;;;6.61;91.38;98790.66;4991273;28;20039;-77
2023/11/16 03:05:06;;;;;;;;;;;;;;;6.58;91.28;98785.22;4976914;28;20068;-77
2023/11/16 03:07:33;;;;;;;0.70;0.70;;;;;;;6.50;91.30;98773.34;4989256;28;20339;-77
2023/11/16 03:10:00;;;;;;;;;;;;;;;6.48;91.53;98772.41;4975590;28;20045;-77
2023/11/16 03:12:27;;;;;;;0.70;0.70;;;;;;;6.45;92.10;98764.28;4982533;28;19925;-77
2023/11/16 03:14:53;;;;;;;0.77;0.77;;;;;;;6.47;92.33;98773.19;4974454;28;20468;-76
2023/11/16 03:17:20;;;;;;;0.80;0.80;;;;;;;6.51;92.23;98765.47;4991899;28;20035;-77
2023/11/16 03:19:46;;;;;;;0.70;0.70;;;;;;;6.49;92.34;98763.59;4973933;28;20030;-77
2023/11/16 03:22:11;;;;;;;0.70;0.70;;;;;;;6.48;92.37;98765.34;4989428;28;20577;-77
2023/11/16 03:24:37;;;;;;;0.70;0.70;;;;;;;6.50;92.59;98762.75;4981955;28;20039;-78
2023/11/16 03:27:03;;;;;;;0.70;0.70;;;;;;;6.48;92.19;98756.50;4976309;28;20037;-77
2023/11/16 03:29:30;;;;;;;0.60;0.60;;;;;;;6.45;92.20;98765.19;4976028;28;20034;-77
2023/11/16 03:31:56;;;;;;;0.70;0.70;;;;;;;6.39;92.65;98754.31;4976896;28;20092;-77
2023/11/16 03:34:22;;;;;;;0.70;0.70;;;;;;;6.42;92.70;98743.88;4977227;28;20034;-77
2023/11/16 03:36:48;;;;;;;0.70;0.70;;;;;;;6.39;92.85;98739.31;4977957;28;20031;-77
2023/11/16 03:39:14;;;;;;;0.70;0.70;;;;;;;6.37;92.58;98732.13;4977424;28;20038;-77
2023/11/16 03:41:39;;;;;;;0.73;0.73;;;;;;;6.31;93.24;98727.47;4992639;28;20091;-77
2023/11/16 03:44:05;;;;;;;0.60;0.60;;;;;;;6.25;93.20;98715.69;4991995;28;20034;-78
2023/11/16 03:46:31;;;;;;;0.70;0.70;;;;;;;6.26;93.37;98718.41;4978167;28;20038;-77
2023/11/16 03:48:56;;;;;;;0.80;0.80;;;;;;;6.27;92.99;98709.59;4992512;28;20420;-77
2023/11/16 03:51:22;;;;;;;0.70;0.70;;;;;;;6.23;93.18;98705.03;4995081;28;20049;-76
2023/11/16 03:53:47;;;;;;;0.70;0.70;;;;;;;6.25;93.18;98706.00;4976176;28;20122;-76
2023/11/16 03:56:13;;;;;;;0.80;0.80;;;;;;;6.26;93.25;98705.16;4976804;28;20038;-76
2023/11/16 03:58:38;;;;;;;0.70;0.70;;;;;;;6.24;93.13;98705.94;4979030;28;20042;-77
2023/11/16 04:01:04;;;;;;;0.70;0.70;;;;;;;6.19;93.33;98715.41;4976024;28;20424;-78
2023/11/16 04:03:29;;;;;;;0.80;0.80;;;;;;;6.16;93.78;98718.81;4977644;28;20046;-77
2023/11/16 04:05:59;;;;;;;0.70;0.70;;;;;;;6.17;93.61;98710.94;4976535;28;20043;-77
2023/11/16 04:08:25;;;;;;;0.70;0.70;;;;;;;6.10;93.44;98729.13;4976789;28;21339;-77
2023/11/16 04:10:51;;;;;;;0.75;0.75;;;;;;;6.04;93.55;98740.34;4991453;28;20066;-78
2023/11/16 04:13:17;;;;;;;0.70;0.70;;;;;;;6.09;93.98;98735.28;4962047;28;20161;-77
2023/11/16 04:15:45;;;;;;;0.80;0.80;;;;;;;6.18;93.71;98727.75;4990192;28;20049;-77
2023/11/16 04:18:11;;;;;;;0.70;0.70;;;;;;;6.18;93.91;98727.75;4991775;28;20130;-77
2023/11/16 04:20:37;;;;;;;0.73;0.73;;;;;;;6.27;93.71;98717.56;4974566;28;20061;-77
2023/11/16 04:23:02;;;;;;;0.70;0.70;;;;;;;6.19;93.43;98718.97;4977921;28;20586;-78
2023/11/16 04:25:29;;;;;;;0.77;0.77;;;;;;;6.16;93.38;98710.88;4995526;28;20080;-77
2023/11/16 04:28:00;;;;;;;0.70;0.70;;;;;;;6.14;94.08;98720.50;4993247;28;20033;-78
2023/11/16 04:30:28;;;;;;;0.70;0.70;;;;;;;6.16;93.68;98718.81;4977032;28;20563;-78
2023/11/16 04:33:03;;;;;;;0.80;0.80;;;;;;;6.17;93.52;98713.59;4980084;28;20033;-77
2023/11/16 04:35:29;;;;;;;0.80;0.80;;;;;;;6.26;93.26;98715.75;4976338;28;20125;-77
2023/11/16 04:37:54;;;;;;;0.70;0.70;;;;;;;6.19;93.62;98703.06;4976473;28;20041;-78
2023/11/16 04:40:22;;;;;;;0.80;0.80;;;;;;;6.15;93.76;98706.41;4972821;28;20031;-78
2023/11/16 04:42:48;;;;;;;0.63;0.63;;;;;;;6.14;93.46;98701.97;4976883;28;20031;-77
2023/11/16 04:45:14;;;;;;;0.70;0.70;;;;;;;6.10;94.07;98708.84;4978026;28;20031;-77
2023/11/16 04:47:43;;;;;;;0.70;0.70;;;;;;;6.12;93.65;98706.25;4975169;28;20052;-77
2023/11/16 04:50:16;;;;;;;0.70;0.70;;;;;;;6.15;93.84;98701.13;4975099;28;20069;-77
2023/11/16 04:52:42;;;;;;;0.70;0.70;;;;;;;6.12;93.99;98706.25;4973703;28;20049;-77
2023/11/16 04:55:07;;;;;;;0.80;0.80;;;;;;;6.11;93.59;98702.72;4976187;28;20027;-77
2023/11/16 04:57:33;;;;;;;0.70;0.70;;;;;;;6.08;93.78;98710.50;4978938;28;20045;-75
2023/11/16 04:59:58;;;;;;;0.80;0.80;;;;;;;6.08;93.91;98715.81;4977292;28;20828;-77
2023/11/16 05:02:24;;;;;;;0.75;0.75;;;;;;;6.05;93.77;98713.03;4976999;28;20429;-76
2023/11/16 05:04:51;;;;;;;0.70;0.70;;;;;;;6.07;94.01;98714.00;4975731;28;20043;-76
2023/11/16 05:07:16;;;;;;;0.73;0.73;;;;;;;6.02;93.91;98704.94;4974990;28;20045;-76
2023/11/16 05:09:42;;;;;;;0.80;0.80;;;;;;;6.02;94.09;98704.94;4975521;28;20031;-76
2023/11/16 05:12:08;;;;;;;0.80;0.80;;;;;;;5.93;94.06;98698.31;4975198;28;20076;-76
2023/11/16 05:14:34;;;;;;;0.80;0.80;;;;;;;5.88;94.53;98696.31;4975137;28;20241;-76
2023/11/16 05:17:01;;;;;;;0.80;0.80;;;;;;;5.82;94.71;98685.44;4974548;28;20079;-76
2023/11/16 05:19:26;;;;;;;0.80;0.80;;;;;;;5.81;94.51;98685.38;4977966;28;20033;-76
2023/11/16 05:21:53;;;;;;;0.80;0.80;;;;;;;5.85;94.63;98679.41;4974860;28;20030;-76
2023/11/16 05:24:19;;;;;;;0.80;0.80;;;;;;;5.83;94.66;98681.03;4974814;28;20093;-76
2023/11/16 05:26:44;;;;;;;0.77;0.77;;;;;;;5.83;94.57;98670.47;4975614;28;20022;-77
2023/11/16 05:29:10;;;;;;;0.80;0.80;;;;;;;5.84;94.83;98682.84;4974750;28;20400;-77
2023/11/16 05:31:36;;;;;;;0.80;0.80;;;;;;;5.79;94.62;98690.56;4976454;28;20635;-77
2023/11/16 05:34:03;;;;;;;0.80;0.80;;;;;;;5.83;94.48;98684.59;4972732;28;20049;-77
2023/11/16 05:36:29;;;;;;;0.80;0.80;;;;;;;6.06;94.67;98674.22;4975249;28;20544;-77
2023/11/16 05:38:56;;;;;;;0.80;0.80;;;;;;;6.12;94.48;98675.38;4973568;28;20037;-77
2023/11/16 05:41:22;;;;;;;;;;;;;;;6.12;94.23;98671.81;4991090;28;20065;-78
2023/11/16 05:43:48;;;;;;;0.80;0.80;;;;;;;6.15;94.17;98670.25;4991447;28;19917;-78
2023/11/16 05:46:14;;;;;;;0.65;0.65;;;;;;;6.12;94.36;98659.50;4975534;28;20030;-78
2023/11/16 05:48:39;;;;;;;0.70;0.70;;;;;;;6.10;94.41;98657.63;4975305;28;20129;-78
2023/11/16 05:51:05;;;;;;;0.70;0.70;;;;;;;6.05;94.50;98651.22;4975044;28;20064;-78
2023/11/16 05:53:31;;;;;;;0.70;0.70;;;;;;;6.04;94.71;98654.72;4976074;28;20030;-79
2023/11/16 05:55:57;;;;;;;0.70;0.70;;;;;;;6.09;94.28;98653.16;4978201;28;20484;-79
2023/11/16 05:58:23;;;;;;;0.70;0.70;;;;;;;6.09;94.44;98648.78;4977308;28;20034;-79
2023/11/16 06:00:49;;;;;;;0.75;0.75;;;;;;;6.20;94.26;98656.28;4975988;28;20038;-78
2023/11/16 06:03:14;;;;;;;0.70;0.70;;;;;;;6.20;94.15;98651.91;4974248;28;20374;-78
2023/11/16 06:05:41;;;;;;;0.80;0.80;;;;;;;6.25;94.17;98644.16;4974635;28;20048;-78
2023/11/16 06:08:07;;;;;;;0.80;0.80;;;;;;;6.27;94.10;98637.19;4972475;28;20116;-77
2023/11/16 06:10:34;;;;;;;0.70;0.70;;;;;;;6.21;93.82;98631.59;4974576;28;20042;-78
2023/11/16 06:13:00;;;;;;;0.70;0.70;;;;;;;6.41;93.75;98631.63;4974765;28;20118;-79
2023/11/16 06:15:28;;;;;;;0.70;0.70;;;;;;;6.29;93.76;98624.91;4974692;28;20109;-79
2023/11/16 06:17:58;;;;;;;0.70;0.70;;;;;;;6.17;93.88;98619.97;4975475;28;20049;-78
2023/11/16 06:20:23;;;;;;;0.70;0.70;;;;;;;6.10;94.19;98618.78;4977780;28;20092;-78
2023/11/16 06:22:50;;;;;;;0.75;0.75;;;;;;;6.02;94.33;98621.94;4976604;28;21773;-78
2023/11/16 06:25:16;;;;;;;0.80;0.80;;;;;;;6.03;94.63;98610.50;4975979;28;20042;-77
2023/11/16 06:27:42;;;;;;;0.80;0.80;;;;;;;6.14;94.38;98614.56;4973377;28;20034;-78
2023/11/16 06:30:08;;;;;;;0.70;0.70;;;;;;;6.11;94.74;98610.00;4975193;28;20038;-77
2023/11/16 06:32:36;;;;;;;0.70;0.70;;;;;;;6.19;94.40;98601.50;4971989;28;20105;-78
2023/11/16 06:35:01;;;;;;;0.70;0.70;;;;;;;6.20;94.85;98604.22;4976080;28;20034;-78
2023/11/16 06:37:27;;;;;;;0.70;0.70;;;;;;;6.23;94.75;98606.06;4983260;28;20034;-78
2023/11/16 06:39:53;;;;;;;0.75;0.75;;;;;;;6.16;94.74;98604.91;4974842;28;20042;-79
2023/11/16 06:42:20;;;;;;;0.70;0.70;;;;;;;6.17;94.07;98606.72;4978377;28;20034;-78
2023/11/16 06:44:48;;;;;;;0.70;0.70;;;;;;;6.17;94.38;98606.72;4976121;28;20061;-77
2023/11/16 06:47:17;;;;;;;0.77;0.77;;;;;;;6.15;94.11;98611.97;4972442;28;20031;-79
2023/11/16 06:49:47;;;;;;;0.70;0.70;;;;;;;6.18;94.46;98600.63;4976156;28;20046;-79
2023/11/16 06:52:17;;;;;;;0.73;0.73;;;;;;;6.16;94.15;98610.22;4976144;28;20046;-79
2023/11/16 06:54:42;;;;;;;0.80;0.80;;;;;;;6.11;94.25;98603.81;4976589;28;20489;-78
2023/11/16 06:57:12;;;;;;;0.73;0.73;;;;;;;6.13;94.00;98589.81;4983483;28;20042;-78
2023/11/16 06:59:38;;;;;;;0.80;0.80;;;;;;;6.12;93.59;98587.97;4972592;28;20117;-79
2023/11/16 07:02:04;;;;;;;0.80;0.80;;;;;;;6.12;93.97;98579.13;4975475;28;20188;-79
2023/11/16 07:04:30;;;;;;;0.85;0.85;;;;;;;6.26;93.77;98587.69;4984852;28;20041;-78
2023/11/16 07:06:56;;;;;;;0.70;0.70;;;;;;;6.17;93.48;98588.19;4993255;28;20053;-78
2023/11/16 07:09:23;;;;;;;0.70;0.70;;;;;;;6.15;93.70;98589.88;4978937;28;20057;-77
2023/11/16 07:11:53;;;;;;;0.80;0.80;;;;;;;6.17;93.39;98588.19;4978399;28;20104;-78
2023/11/16 07:14:19;;;;;;;0.70;0.70;;;;;;;6.10;93.50;98589.66;4977758;28;20420;-78
2023/11/16 07:16:48;;;;;;;0.80;0.80;;;;;;;6.35;93.53;98601.34;4976779;28;20062;-77
2023/11/16 07:19:13;;;;;;;0.70;0.70;;;;;;;6.36;93.07;98595.19;4993947;28;20415;-78
2023/11/16 07:21:39;;;;;;;0.70;0.70;;;;;;;6.34;92.91;98589.84;4984041;28;20039;-78
2023/11/16 07:24:05;;;;;;;0.70;0.70;;;;;;;6.55;92.51;98586.28;4978238;28;20448;-79
2023/11/16 07:26:31;;;;;;;0.70;0.70;;;;;;;6.57;92.29;98574.91;4976765;28;20034;-78
2023/11/16 07:28:57;;;;;;;0.80;0.80;;;;;;;6.52;92.52;98567.63;4977910;28;20640;-79
2023/11/16 07:31:24;;;;;;;0.80;0.80;;;;;;;6.58;91.82;98559.91;4976365;28;20896;-79
2023/11/16 07:33:53;;;;;;;0.80;0.80;;;;;;;6.50;91.81;98564.88;4977679;28;20042;-79
2023/11/16 07:36:25;;;;;;;0.70;0.70;;;;;;;6.40;92.19;98562.69;4977705;28;20034;-78
2023/11/16 07:38:55;;;;;;;0.73;0.73;;;;;;;6.30;92.58;98557.84;4980384;28;20035;-81
2023/11/16 07:41:22;;;;;;;0.80;0.80;;;;;;;6.27;92.32;98557.69;4978919;28;20042;-79
2023/11/16 07:43:48;;;;;;;0.80;0.80;;;;;;;6.30;92.57;98557.84;4980253;28;20041;-80
2023/11/16 07:46:14;;;;;;;0.70;0.70;;;;;;;6.40;92.68;98566.25;4978983;28;20034;-80
2023/11/16 07:48:40;;;;;;;0.70;0.70;;;;;;;6.46;92.63;98575.28;4979950;28;20038;-80
2023/11/16 07:51:07;;;;;;;;;;;;;;;6.52;92.90;98564.97;4983369;28;20046;-79
2023/11/16 07:53:34;;;;;;;0.70;0.70;;;;;;;6.72;92.14;98553.44;4978179;28;20085;-79
2023/11/16 07:56:05;;;;;;;0.90;0.90;;;;;;;6.81;92.14;98540.56;4978163;28;20043;-79
2023/11/16 07:58:34;;;;;;;0.70;0.70;;;;;;;6.78;92.35;98543.09;4979871;28;20051;-78
2023/11/16 08:01:12;;;;;;;0.80;0.80;;;;;;;6.75;92.03;98539.38;4980437;28;20038;-79
2023/11/16 08:03:44;;;;;;;;;;;;;;;6.76;91.86;98528.88;4979791;28;20043;-79
2023/11/16 08:06:14;;;;;;;0.70;0.70;;;;;;;6.73;92.26;98526.09;4977683;28;19936;-79
2023/11/16 08:08:45;;;;;;;0.70;0.70;;;;;;;6.82;92.17;98529.09;4979193;28;20117;-79
2023/11/16 08:11:13;;;;;;;0.75;0.75;;;;;;;7.08;91.36;98515.97;4980354;28;20030;-77
2023/11/16 08:13:45;;;;;;;0.70;0.70;;;;;;;7.02;90.91;98515.75;4974625;28;20031;-77
2023/11/16 08:16:21;;;;;;;0.77;0.77;;;;;;;7.12;90.99;98513.50;4978178;28;20084;-78
2023/11/16 08:18:48;;;;;;;0.70;0.70;;;;;;;7.11;90.88;98516.09;4976860;28;20036;-78
2023/11/16 08:21:14;;;;;;;0.77;0.77;;;;;;;6.96;90.89;98511.09;4975997;28;20062;-78
2023/11/16 08:23:45;;;;;;;0.70;0.70;;;;;;;6.87;90.52;98510.72;4976501;28;20132;-79
2023/11/16 08:26:15;;;;;;;0.70;0.70;;;;;;;6.93;90.36;98505.66;4966044;28;20706;-78
2023/11/16 08:28:44;;;;;;;0.70;0.70;;;;;;;7.00;90.95;98498.88;4975120;28;20037;-78
2023/11/16 08:31:12;;;;;;;0.70;0.70;;;;;;;7.17;90.48;98501.31;4990266;28;20038;-78
2023/11/16 08:33:42;;;;;;;0.70;0.70;;;;;;;7.37;90.22;98490.56;4976978;28;20062;-78
2023/11/16 08:36:11;;;;;;;0.80;0.80;;;;;;;7.41;89.58;98485.41;4974764;28;20034;-78
2023/11/16 08:38:45;;;;;;;0.70;0.70;;;;;;;7.68;89.49;98474.94;4978530;28;20484;-78
2023/11/16 08:41:15;;;;;;;0.70;0.70;;;;;;;7.67;89.02;98466.91;4974899;28;20038;-77
2023/11/16 08:43:47;;;;;;;0.70;0.70;;;;;;;7.73;89.53;98469.78;4976932;28;20042;-78
2023/11/16 08:46:20;;;;;;;0.70;0.70;;;;;;;8.05;88.60;98464.69;4979237;28;20040;-77
2023/11/16 08:48:51;;;;;;;0.68;0.68;;;;;;;8.23;87.38;98475.94;4978166;28;20042;-77
2023/11/16 08:51:17;;;;;;;0.60;0.60;;;;;;;8.27;86.90;98472.56;4983530;28;20448;-77
2023/11/16 08:53:44;;;;;;;0.60;0.60;;;;;;;8.37;85.80;98473.78;4972317;28;20045;-77
2023/11/16 08:56:11;;;;;;;0.60;0.60;;;;;;;8.46;86.34;98464.38;4972756;28;20042;-77
2023/11/16 08:58:44;;;;;;;0.60;0.60;;;;;;;8.53;85.43;98452.19;4975118;28;20034;-76
2023/11/16 09:01:12;;;;;;;0.70;0.70;;;;;;;8.68;84.36;98452.69;4976209;28;20034;-76
2023/11/16 09:03:37;;;;;;;0.70;0.70;;;;;;;8.90;84.12;98448.03;4976111;28;20062;-79
2023/11/16 09:06:05;;;;;;;0.60;0.60;;;;;;;9.28;82.75;98448.28;4976225;28;20395;-78
2023/11/16 09:08:37;;;;;;;0.70;0.70;;;;;;;9.05;82.27;98442.28;4976104;28;20122;-78
2023/11/16 09:11:07;;;;;;;0.70;0.70;;;;;;;9.05;82.25;98436.94;4977735;28;20039;-77
2023/11/16 09:13:33;;;;;;;0.60;0.60;;;;;;;8.99;80.37;98440.34;4975691;28;20049;-78
2023/11/16 09:15:58;;;;;;;0.60;0.60;;;;;;;9.11;80.99;98434.50;4975538;28;20041;-77
2023/11/16 09:18:25;;;;;;;0.60;0.60;;;;;;;8.88;81.14;98436.44;4978117;28;20038;-77
2023/11/16 09:20:51;;;;;;;0.70;0.70;;;;;;;8.58;81.43;98426.66;4973435;28;20420;-78
2023/11/16 09:23:17;;;;;;;0.70;0.70;;;;;;;8.72;81.14;98435.09;4975369;28;20496;-78
2023/11/16 09:25:45;;;;;;;0.70;0.70;;;;;;;8.55;82.34;98431.88;4973516;28;20053;-78
2023/11/16 09:28:11;;;;;;;0.70;0.70;;;;;;;8.89;81.46;98432.94;4976098;28;20038;-77
2023/11/16 09:30:39;;;;;;;0.70;0.70;;;;;;;8.66;81.38;98426.88;4975508;28;20046;-79
2023/11/16 09:33:08;;;;;;;0.70;0.70;;;;;;;8.58;82.13;98417.78;4974186;28;20120;-79
2023/11/16 09:35:34;;;;;;;0.70;0.70;;;;;;;8.61;82.58;98408.13;4988153;28;20042;-79
2023/11/16 09:38:08;;;;;;;0.60;0.60;;;;;;;8.77;81.69;98401.56;4973784;28;20039;-79
2023/11/16 09:40:35;;;;;;;0.60;0.60;;;;;;;9.04;81.40;98398.78;4973755;28;20038;-79
2023/11/16 09:43:03;;;;;;;0.68;0.68;;;;;;;8.61;80.54;98399.25;4973826;28;20096;-79
2023/11/16 09:45:29;;;;;;;0.68;0.68;;;;;;;8.69;80.52;98387.09;4976230;28;20038;-79
2023/11/16 09:48:12;;;;;;;0.60;0.60;;;;;;;8.73;80.48;98381.03;4990268;28;20053;-79
2023/11/16 09:50:48;;;;;;;0.60;0.60;;;;;;;8.92;79.57;98374.50;4975647;28;20046;-79
2023/11/16 09:53:17;;;;;;;0.70;0.70;;;;;;;9.03;79.92;98365.06;4977805;28;20522;-80
2023/11/16 09:55:55;;;;;;;0.70;0.70;;;;;;;9.01;79.90;98361.47;4990130;28;20049;-79
2023/11/16 09:58:25;;;;;;;;;;;;;;;9.15;79.70;98359.19;4978350;28;20038;-79
2023/11/16 10:00:55;;;;;;;0.60;0.60;;;;;;;8.96;79.90;98356.03;4977728;28;19924;-80
2023/11/16 10:03:31;;;;;;;0.70;0.70;;;;;;;8.97;80.40;98344.50;4977024;28;20229;-78
2023/11/16 10:06:01;;;;;;;0.70;0.70;;;;;;;8.89;80.38;98322.09;4976201;28;20061;-78
2023/11/16 10:08:28;;;;;;;0.60;0.60;;;;;;;8.68;79.62;98326.78;4973665;28;20173;-78
2023/11/16 10:11:00;;;;;;;0.60;0.60;;;;;;;9.09;79.32;98324.41;4972291;28;20093;-77
2023/11/16 10:13:27;;;;;;;0.60;0.60;;;;;;;9.20;77.72;98320.31;4988618;28;20034;-77
2023/11/16 10:15:53;;;;;;;0.70;0.70;;;;;;;9.07;78.55;98304.88;4974579;28;20125;-77
2023/11/16 10:18:24;;;;;;;0.70;0.70;;;;;;;9.28;77.11;98301.88;4974193;28;20094;-78
2023/11/16 10:20:50;;;;;;;0.60;0.60;;;;;;;9.45;77.43;98296.16;4973122;28;20035;-79
2023/11/16 10:23:18;;;;;;;0.60;0.60;;;;;;;9.21;78.22;98287.53;4958061;28;20508;-78
2023/11/16 10:25:48;;;;;;;0.60;0.60;;;;;;;9.02;77.31;98277.22;4975617;28;20526;-79
2023/11/16 10:28:21;;;;;;;0.60;0.60;;;;;;;9.18;77.71;98275.00;4977960;28;20493;-78
2023/11/16 10:30:50;;;;;;;0.60;0.60;;;;;;;9.31;77.20;98267.38;4974131;28;20124;-78
2023/11/16 10:33:17;;;;;;;0.60;0.60;;;;;;;9.15;76.82;98255.38;4972971;28;20039;-79
2023/11/16 10:35:47;;;;;;;0.60;0.60;;;;;;;9.22;76.81;98257.38;4974658;28;20054;-79
2023/11/16 10:38:18;;;;;;;0.60;0.60;;;;;;;9.00;77.54;98247.91;4975555;28;20100;-79
2023/11/16 10:40:47;;;;;;;0.70;0.70;;;;;;;8.93;77.71;98243.28;4979577;28;20043;-79
2023/11/16 10:43:27;;;;;;;0.60;0.60;;;;;;;8.88;77.03;98229.84;4977470;28;20245;-78
2023/11/16 10:45:59;;;;;;;0.60;0.60;;;;;;;8.92;76.02;98218.44;4991663;28;20042;-78
2023/11/16 10:48:26;;;;;;;0.68;0.68;;;;;;;8.85;76.59;98205.81;4979179;28;20053;-78
2023/11/16 10:50:52;;;;;;;0.70;0.70;;;;;;;9.08;76.22;98186.91;4979844;28;20106;-77
2023/11/16 10:53:22;;;;;;;0.70;0.70;;;;;;;9.32;76.33;98179.56;4979403;28;20062;-78
2023/11/16 10:55:55;;;;;;;0.60;0.60;;;;;;;9.03;74.46;98156.63;4978129;28;20022;-77
2023/11/16 10:58:25;;;;;;;0.60;0.60;;;;;;;9.19;74.92;98162.34;4978545;28;20128;-77
2023/11/16 11:00:59;;;;;;;0.60;0.60;;;;;;;9.34;75.68;98156.56;4977259;28;20088;-77
2023/11/16 11:03:25;;;;;;;0.60;0.60;;;;;;;8.96;75.06;98148.50;4978352;28;20177;-77
2023/11/16 11:05:57;;;;;;;0.70;0.70;;;;;;;9.14;75.54;98147.13;4984426;28;20559;-77
2023/11/16 11:08:38;;;;;;;0.70;0.70;;;;;;;9.09;74.19;98138.16;4979135;28;20509;-78
2023/11/16 11:11:04;;;;;;;0.60;0.60;;;;;;;8.99;74.42;98127.25;4977110;28;20054;-77
2023/11/16 11:13:32;;;;;;;0.70;0.70;;;;;;;9.14;74.45;98110.78;4992258;28;20038;-77
2023/11/16 11:16:05;;;;;;;0.60;0.60;;;;;;;9.09;73.69;98119.50;4978512;28;20099;-78
2023/11/16 11:18:31;;;;;;;0.70;0.70;;;;;;;9.21;75.27;98104.75;4978686;28;20047;-78
2023/11/16 11:21:09;;;;;;;0.60;0.60;;;;;;;9.12;73.51;98101.88;4978381;28;20060;-77
2023/11/16 11:23:39;;;;;;;0.50;0.50;;;;;;;8.99;75.08;98092.69;4988434;28;20038;-77
2023/11/16 11:26:06;;;;;;;0.70;0.70;;;;;;;9.00;76.18;98075.84;4995321;28;20411;-78
2023/11/16 11:28:38;;;;;;;0.60;0.60;;;;;;;8.93;76.16;98067.69;4979109;28;20069;-78
2023/11/16 11:31:10;;;;;;;0.60;0.60;;;;;;;8.87;75.93;98055.16;4979904;28;20069;-77
2023/11/16 11:33:39;;;;;;;0.70;0.70;;;;;;;8.90;76.36;98056.97;4977458;28;20038;-77
2023/11/16 11:36:14;;;;;;;0.60;0.60;;;;;;;8.74;76.30;98039.72;4975848;28;20039;-76
2023/11/16 11:38:42;;;;;;;0.70;0.70;;;;;;;8.67;77.13;98033.38;4980689;28;20050;-79
2023/11/16 11:41:12;;;;;;;0.60;0.60;;;;;;;8.73;77.81;98033.53;4984677;28;20030;-77
2023/11/16 11:43:39;;;;;;;0.70;0.70;;;;;;;8.71;76.48;98024.59;4980527;28;20097;-77
2023/11/16 11:46:05;;;;;;;0.70;0.70;;;;;;;8.75;77.78;98022.91;4980067;28;20056;-77